Time;durP1;ratioP1;P1;durP2;ratioP2;P2;SDS_P1;SDS_P2;PMS_P1;PMS_P2;Temp;Humidity;BMP_temperature;BMP_pressure;BME280_temperature;BME280_humidity;BME280_pressure;Samples;Min_cycle;Max_cycle;Signal;HPM_P1;HPM_P2
2022/09/07 00:00:57;;;;;;;2.60;1.10;;;;;;;20.49;46.68;99490.28;6070426;23;20225;-88
2022/09/07 00:03:22;;;;;;;1.90;0.80;;;;;;;20.47;46.63;99493.06;6069949;23;20259;-88
2022/09/07 00:05:50;;;;;;;1.80;0.90;;;;;;;20.40;46.88;99491.06;6069753;23;20145;-89
2022/09/07 00:08:19;;;;;;;1.17;0.50;;;;;;;20.39;46.74;99487.56;6044595;23;20460;-88
2022/09/07 00:10:51;;;;;;;3.23;1.00;;;;;;;20.45;46.67;99488.84;6069676;23;20292;-88
2022/09/07 00:13:17;;;;;;;0.93;0.70;;;;;;;20.36;46.95;99484.34;6070009;23;20484;-88
2022/09/07 00:15:42;;;;;;;3.53;0.60;;;;;;;20.29;47.39;99484.03;6069551;23;20176;-88
2022/09/07 00:18:08;;;;;;;1.63;0.30;;;;;;;20.28;47.40;99489.50;6070244;23;20163;-88
2022/09/07 00:20:34;;;;;;;2.20;0.90;;;;;;;20.26;47.47;99481.63;6044521;23;20630;-88
2022/09/07 00:22:59;;;;;;;2.70;1.43;;;;;;;20.19;47.69;99478.63;6070227;23;20223;-88
2022/09/07 00:25:25;;;;;;;2.87;0.60;;;;;;;20.16;47.85;99473.56;6069851;23;20145;-89
2022/09/07 00:27:50;;;;;;;1.23;0.63;;;;;;;20.13;47.90;99473.84;6044438;23;20161;-89
2022/09/07 00:30:16;;;;;;;1.27;0.73;;;;;;;20.02;48.21;99479.22;6069814;23;20184;-89
2022/09/07 00:32:41;;;;;;;2.23;0.97;;;;;;;19.91;48.60;99483.78;6070002;23;20156;-88
2022/09/07 00:35:07;;;;;;;2.40;1.00;;;;;;;19.86;48.99;99481.53;6069356;23;20524;-88
2022/09/07 00:37:32;;;;;;;2.70;1.10;;;;;;;19.81;48.76;99475.72;6069464;23;20188;-88
2022/09/07 00:39:58;;;;;;;2.00;0.77;;;;;;;19.74;49.27;99482.56;6069718;23;20152;-88
2022/09/07 00:42:23;;;;;;;1.83;0.80;;;;;;;19.71;49.43;99477.50;6044323;23;20244;-89
2022/09/07 00:45:05;;;;;;;1.33;0.70;;;;;;;19.59;49.35;99479.38;6044310;23;20329;-88
2022/09/07 00:47:43;;;;;;;0.80;0.50;;;;;;;19.51;49.61;99481.00;6069733;23;20151;-88
2022/09/07 00:50:17;;;;;;;2.10;0.67;;;;;;;19.57;48.95;99486.63;6044374;23;20141;-88
2022/09/07 00:52:47;;;;;;;3.43;0.83;;;;;;;19.56;48.60;99484.13;6044019;23;20169;-88
2022/09/07 00:55:14;;;;;;;4.20;0.80;;;;;;;19.51;48.65;99487.16;6069165;23;20199;-88
2022/09/07 00:57:44;;;;;;;1.07;0.63;;;;;;;19.46;48.87;99488.53;6069950;23;20236;-88
2022/09/07 01:00:10;;;;;;;2.30;0.90;;;;;;;19.34;49.06;99489.50;6069228;23;20157;-88
2022/09/07 01:02:36;;;;;;;3.50;0.93;;;;;;;19.13;50.05;99485.97;6044113;23;20200;-88
2022/09/07 01:05:18;;;;;;;1.50;0.60;;;;;;;18.99;50.65;99492.41;6069443;23;20150;-88
2022/09/07 01:07:44;;;;;;;1.03;0.53;;;;;;;18.94;50.52;99492.78;6069186;23;20137;-88
2022/09/07 01:10:10;;;;;;;1.53;0.93;;;;;;;18.93;50.21;99491.09;6069088;23;20577;-88
2022/09/07 01:12:36;;;;;;;2.80;0.87;;;;;;;18.88;50.73;99493.28;6069149;23;20177;-88
2022/09/07 01:15:01;;;;;;;1.40;0.73;;;;;;;18.86;50.60;99489.91;6069065;23;20177;-88
2022/09/07 01:17:52;;;;;;;1.80;0.70;;;;;;;18.89;50.59;99494.94;6069394;23;20584;-88
2022/09/07 01:20:27;;;;;;;1.03;0.50;;;;;;;18.87;50.84;99490.72;6069046;23;20151;-88
2022/09/07 01:23:20;;;;;;;1.30;0.60;;;;;;;18.82;50.49;99488.44;6069384;23;20144;-88
2022/09/07 01:26:21;;;;;;;2.80;0.97;;;;;;;18.78;50.47;99488.81;6069664;23;20133;-88
2022/09/07 01:28:53;;;;;;;1.73;0.60;;;;;;;18.70;50.75;99492.09;6043959;23;20546;-88
2022/09/07 01:31:19;;;;;;;1.50;0.77;;;;;;;18.66;50.73;99495.94;6068972;23;20175;-88
2022/09/07 01:33:47;;;;;;;1.13;0.53;;;;;;;18.59;51.47;99492.09;6043886;23;20157;-88
2022/09/07 01:36:38;;;;;;;2.97;0.80;;;;;;;18.46;52.18;99496.66;6068799;23;20698;-88
2022/09/07 01:39:05;;;;;;;0.90;0.67;;;;;;;18.58;51.75;99493.06;6069202;23;20176;-88
2022/09/07 01:41:57;;;;;;;2.93;1.30;;;;;;;18.57;51.74;99488.72;6043692;23;20224;-88
2022/09/07 01:44:40;;;;;;;1.30;0.67;;;;;;;18.55;51.88;99487.16;6069816;23;20150;-88
2022/09/07 01:47:15;;;;;;;2.40;0.67;;;;;;;18.56;52.19;99487.03;6069144;23;20271;-88
2022/09/07 01:50:06;;;;;;;1.20;0.80;;;;;;;18.44;53.15;99493.28;6069351;23;20156;-88
2022/09/07 01:52:47;;;;;;;1.27;0.80;;;;;;;18.43;53.81;99488.94;6069180;23;20138;-88
2022/09/07 01:55:25;;;;;;;2.60;0.70;;;;;;;18.47;53.92;99495.75;6069345;23;20175;-89
2022/09/07 01:58:00;;;;;;;1.97;0.80;;;;;;;18.45;53.47;99491.50;6043723;23;20168;-89
2022/09/07 02:00:25;;;;;;;2.30;0.70;;;;;;;18.44;53.23;99490.66;6069394;23;20177;-89
2022/09/07 02:03:02;;;;;;;3.17;0.97;;;;;;;18.34;53.22;99490.50;6068679;23;20161;-88
2022/09/07 02:05:38;;;;;;;1.83;0.60;;;;;;;18.36;53.26;99491.25;6068746;23;20577;-88
2022/09/07 02:08:18;;;;;;;2.20;0.90;;;;;;;18.45;52.90;99487.00;6068646;23;20142;-88
2022/09/07 02:11:15;;;;;;;1.60;0.80;;;;;;;18.44;52.94;99487.97;6068968;23;20149;-88
2022/09/07 02:13:47;;;;;;;2.80;0.97;;;;;;;18.47;52.90;99474.50;6066363;23;20502;-88
2022/09/07 02:16:19;;;;;;;1.33;0.60;;;;;;;18.39;52.97;99483.03;6068820;23;20173;-88
2022/09/07 02:18:48;;;;;;;2.00;0.70;;;;;;;18.23;53.88;99489.66;6068861;23;20148;-88
2022/09/07 02:21:18;;;;;;;0.93;0.43;;;;;;;18.20;53.67;99489.91;6068507;23;20149;-88
2022/09/07 02:23:53;;;;;;;1.53;0.70;;;;;;;18.09;54.21;99488.09;6068773;23;20161;-88
2022/09/07 02:26:21;;;;;;;1.97;0.70;;;;;;;18.22;53.73;99488.81;6068873;23;20148;-88
2022/09/07 02:28:47;;;;;;;2.83;1.10;;;;;;;18.33;52.76;99493.28;6068414;23;20149;-88
2022/09/07 02:31:13;;;;;;;1.57;0.60;;;;;;;18.33;52.54;99493.28;6068807;23;20159;-88
2022/09/07 02:33:39;;;;;;;4.07;1.00;;;;;;;18.30;52.93;99488.22;6068353;23;20523;-88
2022/09/07 02:36:05;;;;;;;1.60;0.80;;;;;;;18.31;52.56;99479.31;6068309;23;20247;-88
2022/09/07 02:38:32;;;;;;;3.23;1.00;;;;;;;18.18;53.00;99486.53;6068680;23;20153;-89
2022/09/07 02:41:00;;;;;;;2.60;0.87;;;;;;;18.13;53.08;99484.22;6069043;23;20520;-88
2022/09/07 02:43:27;;;;;;;1.10;0.60;;;;;;;18.19;52.89;99488.22;6068290;23;20157;-88
2022/09/07 02:46:06;;;;;;;1.90;0.60;;;;;;;18.24;52.54;99480.72;6068310;23;20517;-88
2022/09/07 02:48:59;;;;;;;2.13;0.70;;;;;;;18.30;52.49;99477.59;6043244;23;20228;-89
2022/09/07 02:52:04;;;;;;;3.43;1.20;;;;;;;18.32;52.21;99473.84;6068623;23;20141;-88
2022/09/07 02:54:29;;;;;;;1.57;0.70;;;;;;;18.27;52.59;99480.50;6069466;23;20172;-89
2022/09/07 02:57:10;;;;;;;3.23;0.90;;;;;;;18.29;52.16;99474.09;6068146;23;20181;-88
2022/09/07 03:00:04;;;;;;;2.07;0.70;;;;;;;18.26;52.75;99469.03;6043303;23;20608;-89
2022/09/07 03:02:40;;;;;;;6.33;0.73;;;;;;;18.16;53.01;99469.91;6068596;23;20204;-88
2022/09/07 03:05:38;;;;;;;2.10;1.10;;;;;;;18.13;53.10;99470.94;6068225;23;20149;-88
2022/09/07 03:08:19;;;;;;;1.90;0.90;;;;;;;18.19;53.16;99472.28;6067350;23;20169;-88
2022/09/07 03:10:45;;;;;;;1.43;0.73;;;;;;;18.14;53.49;99471.81;6068614;23;20161;-89
2022/09/07 03:13:26;;;;;;;1.93;0.70;;;;;;;18.13;53.50;99470.13;6043064;23;20153;-89
2022/09/07 03:15:52;;;;;;;1.53;0.67;;;;;;;18.10;53.70;99468.56;6069261;23;20312;-88
2022/09/07 03:18:18;;;;;;;2.47;0.63;;;;;;;18.12;53.59;99471.09;6070555;23;20160;-88
2022/09/07 03:20:43;;;;;;;2.00;0.80;;;;;;;18.15;53.34;99478.81;6070509;23;20153;-88
2022/09/07 03:23:09;;;;;;;2.07;0.97;;;;;;;18.10;53.21;99473.88;6070124;23;20167;-88
2022/09/07 03:25:34;;;;;;;1.00;0.50;;;;;;;18.08;53.21;99472.31;6070099;23;20145;-88
2022/09/07 03:28:00;;;;;;;2.43;1.00;;;;;;;17.91;54.05;99470.09;6070073;23;20157;-88
2022/09/07 03:30:25;;;;;;;1.57;0.93;;;;;;;17.91;54.22;99470.09;6070058;23;20161;-89
2022/09/07 03:32:51;;;;;;;2.30;1.10;;;;;;;17.90;53.93;99471.06;6070038;23;20156;-89
2022/09/07 03:35:17;;;;;;;2.07;1.33;;;;;;;17.87;54.06;99469.50;6069802;23;20177;-88
2022/09/07 03:37:42;;;;;;;4.53;1.13;;;;;;;17.80;54.34;99478.88;6070313;23;20149;-89
2022/09/07 03:40:10;;;;;;;3.27;1.60;;;;;;;17.71;54.85;99483.06;6069985;23;20159;-88
2022/09/07 03:42:36;;;;;;;3.47;1.00;;;;;;;17.74;54.95;99474.88;6069956;23;20157;-88
2022/09/07 03:45:02;;;;;;;2.20;0.80;;;;;;;17.74;55.30;99482.84;6044932;23;20156;-88
2022/09/07 03:47:28;;;;;;;2.67;1.00;;;;;;;17.71;55.60;99488.38;6070270;23;20228;-88
2022/09/07 03:49:53;;;;;;;2.13;1.10;;;;;;;17.69;55.79;99487.66;6069915;23;20203;-88
2022/09/07 03:52:19;;;;;;;1.63;0.80;;;;;;;17.83;55.47;99491.91;6070432;23;20175;-89
2022/09/07 03:54:45;;;;;;;9.27;1.37;;;;;;;17.89;55.30;99485.28;6070065;23;20224;-88
2022/09/07 03:57:10;;;;;;;4.27;0.77;;;;;;;17.84;55.36;99483.00;6070167;23;20492;-88
2022/09/07 03:59:36;;;;;;;2.10;1.43;;;;;;;17.91;55.23;99494.81;6044798;23;20200;-88
2022/09/07 04:02:02;;;;;;;2.43;1.20;;;;;;;17.82;55.68;99500.00;6068778;23;20156;-88
2022/09/07 04:04:28;;;;;;;2.03;1.00;;;;;;;17.87;55.47;99495.19;6043483;23;20215;-88
2022/09/07 04:06:53;;;;;;;1.40;0.87;;;;;;;17.91;55.52;99493.97;6043333;23;20170;-88
2022/09/07 04:09:19;;;;;;;2.47;1.23;;;;;;;17.89;55.61;99491.44;6044627;23;20168;-88
2022/09/07 04:11:44;;;;;;;3.10;1.17;;;;;;;17.90;55.89;99513.50;6069310;23;20153;-88
2022/09/07 04:14:10;;;;;;;1.27;0.90;;;;;;;17.91;55.83;99515.19;6069694;23;20157;-88
2022/09/07 04:16:36;;;;;;;1.50;0.73;;;;;;;17.99;55.51;99515.44;6069875;23;20184;-90
2022/09/07 04:19:03;;;;;;;2.43;0.80;;;;;;;18.00;55.50;99514.50;6044488;23;20540;-88
2022/09/07 04:21:30;;;;;;;3.00;0.70;;;;;;;18.09;55.64;99519.06;6068765;23;20153;-88
2022/09/07 04:23:56;;;;;;;3.53;1.23;;;;;;;18.08;55.60;99510.25;6044509;23;20484;-88
2022/09/07 04:26:28;;;;;;;2.80;1.23;;;;;;;18.15;55.66;99521.25;6069838;23;20163;-89
2022/09/07 04:28:54;;;;;;;2.50;1.33;;;;;;;18.16;55.72;99522.97;6069314;23;20138;-88
2022/09/07 04:31:20;;;;;;;3.77;1.50;;;;;;;18.22;55.54;99523.31;6069502;23;20195;-88
2022/09/07 04:33:48;;;;;;;5.10;1.40;;;;;;;18.24;55.50;99525.84;6068635;23;20156;-88
2022/09/07 04:36:14;;;;;;;5.20;1.47;;;;;;;18.30;55.46;99525.38;6068273;23;20219;-89
2022/09/07 04:38:40;;;;;;;4.93;2.47;;;;;;;18.37;55.57;99530.06;6069666;23;20175;-88
2022/09/07 04:41:12;;;;;;;2.37;1.00;;;;;;;18.43;55.67;99523.44;6069410;23;20177;-88
2022/09/07 04:43:39;;;;;;;4.30;1.37;;;;;;;18.46;55.75;99533.81;6069298;23;20141;-88
2022/09/07 04:46:07;;;;;;;3.80;1.80;;;;;;;18.50;56.05;99531.81;6069657;23;20146;-88
2022/09/07 04:48:33;;;;;;;4.90;1.67;;;;;;;18.58;55.69;99543.50;6069652;23;20195;-89
2022/09/07 04:51:06;;;;;;;2.03;1.07;;;;;;;18.61;55.24;99529.13;6069936;23;20158;-88
2022/09/07 04:53:36;;;;;;;4.33;1.60;;;;;;;18.66;55.07;99546.41;6069490;23;20164;-88
2022/09/07 04:56:02;;;;;;;2.97;1.63;;;;;;;18.84;54.52;99547.59;6069887;23;20635;-89
2022/09/07 04:58:28;;;;;;;5.80;2.43;;;;;;;18.92;54.31;99542.50;6069921;23;20218;-88
2022/09/07 05:00:53;;;;;;;10.20;1.90;;;;;;;19.01;54.23;99548.91;6044134;23;20165;-88
2022/09/07 05:03:19;;;;;;;5.20;1.67;;;;;;;19.11;54.43;99546.34;6044107;23;20187;-88
2022/09/07 05:05:45;;;;;;;4.50;1.53;;;;;;;19.22;54.37;99546.31;6069179;23;20145;-88
2022/09/07 05:08:12;;;;;;;4.97;1.20;;;;;;;19.28;54.82;99546.69;6069504;23;20201;-88
2022/09/07 05:10:37;;;;;;;7.10;1.63;;;;;;;19.40;54.57;99555.47;6044137;23;20160;-88
2022/09/07 05:13:03;;;;;;;3.67;1.40;;;;;;;19.41;54.56;99547.41;6069739;23;20149;-88
2022/09/07 05:15:29;;;;;;;3.10;1.07;;;;;;;19.54;54.44;99534.78;6043959;23;20570;-88
2022/09/07 05:17:56;;;;;;;2.70;1.20;;;;;;;19.74;54.15;99546.41;6069063;23;20167;-88
2022/09/07 05:20:21;;;;;;;2.73;1.17;;;;;;;19.87;53.83;99536.41;6069040;23;20153;-88
2022/09/07 05:22:47;;;;;;;4.87;1.00;;;;;;;20.03;53.54;99542.13;6044050;23;20160;-89
2022/09/07 05:25:13;;;;;;;4.00;1.30;;;;;;;20.09;53.61;99546.94;6043969;23;20149;-89
2022/09/07 05:27:39;;;;;;;2.70;1.13;;;;;;;20.10;53.52;99545.94;6069003;23;20164;-88
2022/09/07 05:30:05;;;;;;;2.83;1.23;;;;;;;20.21;53.95;99550.34;6043832;23;20540;-88
2022/09/07 05:32:30;;;;;;;2.60;1.10;;;;;;;20.34;53.68;99551.03;6068866;23;20212;-88
2022/09/07 05:34:56;;;;;;;3.20;1.10;;;;;;;20.51;53.64;99553.09;6069122;23;20271;-89
2022/09/07 05:37:21;;;;;;;4.87;1.40;;;;;;;20.63;53.79;99546.69;6043872;23;20583;-89
2022/09/07 05:39:47;;;;;;;8.27;1.80;;;;;;;20.76;55.05;99557.97;6043390;23;20160;-89
2022/09/07 05:42:12;;;;;;;9.43;2.30;;;;;;;20.91;55.27;99550.41;6069515;23;20550;-88
2022/09/07 05:44:38;;;;;;;6.47;2.50;;;;;;;21.05;55.01;99544.72;6069549;23;20157;-89
2022/09/07 05:47:03;;;;;;;8.87;1.83;;;;;;;21.11;54.92;99548.69;6069145;23;20615;-89
2022/09/07 05:49:29;;;;;;;12.73;2.30;;;;;;;21.23;54.91;99551.09;6044129;23;20544;-90
2022/09/07 05:51:55;;;;;;;9.73;2.13;;;;;;;21.36;54.33;99548.16;6044112;23;20220;-89
2022/09/07 05:54:20;;;;;;;4.93;1.83;;;;;;;21.47;54.04;99545.38;6068585;23;20616;-89
2022/09/07 05:56:46;;;;;;;5.47;1.70;;;;;;;21.61;53.94;99541.47;6043701;23;20247;-89
2022/09/07 05:59:11;;;;;;;4.87;1.50;;;;;;;21.74;53.06;99550.88;6068966;23;20164;-88
2022/09/07 06:01:37;;;;;;;3.73;1.40;;;;;;;21.71;53.67;99536.97;6069350;23;20336;-88
2022/09/07 06:04:02;;;;;;;3.07;1.30;;;;;;;21.94;53.00;99549.06;6068635;23;20153;-88
2022/09/07 06:06:28;;;;;;;4.83;1.43;;;;;;;22.09;52.23;99550.28;6068727;23;20146;-89
2022/09/07 06:08:53;;;;;;;8.73;1.77;;;;;;;22.17;51.63;99547.75;6043566;23;20156;-89
2022/09/07 06:11:21;;;;;;;3.93;1.60;;;;;;;22.15;52.18;99548.88;6069319;23;20153;-89
2022/09/07 06:13:48;;;;;;;9.03;1.53;;;;;;;22.23;52.36;99551.66;6069055;23;20164;-88
2022/09/07 06:16:15;;;;;;;12.13;2.10;;;;;;;22.48;51.44;99551.88;6068431;23;20287;-89
2022/09/07 06:18:43;;;;;;;9.30;1.40;;;;;;;22.72;50.41;99546.06;6069173;23;20164;-88
2022/09/07 06:21:16;;;;;;;8.63;2.37;;;;;;;22.82;50.16;99543.34;6043458;23;20466;-89
2022/09/07 06:23:43;;;;;;;10.30;1.90;;;;;;;23.01;49.87;99543.22;6068507;23;20153;-89
2022/09/07 06:26:09;;;;;;;6.53;1.63;;;;;;;23.24;49.01;99540.00;6068809;23;20145;-90
2022/09/07 06:28:40;;;;;;;5.33;1.47;;;;;;;23.53;48.50;99555.06;6043385;23;20156;-89
2022/09/07 06:31:14;;;;;;;6.13;1.37;;;;;;;23.67;47.65;99550.00;6044092;23;20551;-88
2022/09/07 06:33:41;;;;;;;7.07;1.30;;;;;;;23.72;47.70;99544.16;6068471;23;20558;-88
2022/09/07 06:36:12;;;;;;;9.43;2.00;;;;;;;24.06;47.05;99541.59;6068636;23;20176;-89
2022/09/07 06:38:38;;;;;;;1.63;0.67;;;;;;;24.23;47.19;99544.28;6043281;23;20488;-89
2022/09/07 06:41:04;;;;;;;4.80;1.40;;;;;;;24.43;45.73;99544.91;6043261;23;20161;-88
2022/09/07 06:43:30;;;;;;;3.90;1.50;;;;;;;24.63;45.87;99542.84;6068679;23;20212;-89
2022/09/07 06:45:57;;;;;;;7.93;1.77;;;;;;;25.23;44.69;99538.25;6068712;23;20554;-89
2022/09/07 06:48:23;;;;;;;3.83;1.23;;;;;;;25.59;43.74;99545.06;6043246;23;20167;-89
2022/09/07 06:51:04;;;;;;;4.90;0.90;;;;;;;25.52;43.98;99544.88;6068235;23;20148;-89
2022/09/07 06:53:33;;;;;;;9.00;1.42;;;;;;;25.88;43.18;99547.25;6043157;23;20501;-89
2022/09/07 06:55:59;;;;;;;9.73;1.58;;;;;;;26.38;42.28;99552.47;6068535;23;20181;-89
2022/09/07 06:58:28;;;;;;;4.50;1.17;;;;;;;26.94;40.57;99548.81;6068615;23;20149;-90
2022/09/07 07:00:56;;;;;;;3.97;1.05;;;;;;;27.38;39.69;99545.34;6043521;23;20185;-90
2022/09/07 07:03:22;;;;;;;6.38;1.23;;;;;;;27.43;39.00;99551.09;6043051;23;20160;-89
2022/09/07 07:05:53;;;;;;;2.20;1.08;;;;;;;27.81;39.00;99551.16;6043126;23;20167;-89
2022/09/07 07:08:22;;;;;;;3.17;1.00;;;;;;;28.09;38.01;99544.22;6068572;23;20191;-90
2022/09/07 07:10:48;;;;;;;4.28;1.10;;;;;;;28.50;37.30;99547.34;6043073;23;20164;-89
2022/09/07 07:13:14;;;;;;;3.17;0.70;;;;;;;28.79;36.37;99552.78;6068534;23;20156;-89
2022/09/07 07:15:50;;;;;;;2.10;1.15;;;;;;;28.69;37.01;99559.47;6068100;23;20180;-90
2022/09/07 07:18:15;;;;;;;5.70;0.95;;;;;;;28.74;36.51;99559.75;6068583;23;20145;-90
2022/09/07 07:20:41;;;;;;;2.85;1.02;;;;;;;28.94;37.08;99560.84;6043009;23;20271;-89
2022/09/07 07:23:07;;;;;;;6.95;1.15;;;;;;;28.90;36.00;99563.13;6068492;23;20224;-89
2022/09/07 07:25:36;;;;;;;3.47;1.13;;;;;;;28.92;36.94;99561.06;6043177;23;20582;-89
2022/09/07 07:28:12;;;;;;;3.83;1.00;;;;;;;29.17;36.49;99553.47;6043029;23;20232;-89
2022/09/07 07:30:38;;;;;;;8.75;1.10;;;;;;;29.37;36.02;99560.00;6068895;23;20204;-90
2022/09/07 07:33:07;;;;;;;2.45;0.80;;;;;;;29.47;35.27;99555.13;6068160;23;20157;-90
2022/09/07 07:35:35;;;;;;;2.13;0.73;;;;;;;29.55;35.96;99557.69;6042909;23;20520;-90
2022/09/07 07:38:39;;;;;;;;;;;;;;;;;;;;;
2022/09/07 07:41:47;;;;;;;2.70;0.90;;;;;;;30.08;34.46;99552.81;6068445;23;20245;-91
2022/09/07 07:44:15;;;;;;;2.88;0.60;;;;;;;30.12;32.73;99560.34;6069160;23;20165;-90
2022/09/07 07:47:01;;;;;;;3.83;1.20;;;;;;;30.01;32.48;99546.50;6069044;23;20153;-90
2022/09/07 07:49:29;;;;;;;2.08;0.95;;;;;;;29.97;33.15;99546.09;6044140;23;20149;-90
2022/09/07 07:52:17;;;;;;;1.85;0.73;;;;;;;29.98;32.90;99555.03;6068068;23;20153;-90
2022/09/07 07:54:42;;;;;;;3.08;0.93;;;;;;;30.12;33.39;99556.81;6042928;23;20602;-90
2022/09/07 07:57:18;;;;;;;3.70;0.70;;;;;;;30.20;32.28;99559.38;6068282;23;20177;-89
2022/09/07 07:59:43;;;;;;;1.98;0.70;;;;;;;30.27;32.84;99552.13;6042942;23;20145;-90
2022/09/07 08:02:14;;;;;;;3.75;0.90;;;;;;;30.52;32.57;99548.00;6043518;23;20168;-90
2022/09/07 08:04:46;;;;;;;6.55;0.60;;;;;;;30.63;32.42;99547.44;6044715;23;20464;-90
2022/09/07 08:07:50;;;;;;;2.35;0.82;;;;;;;30.70;32.16;99551.03;6069779;23;20212;-90
2022/09/07 08:10:29;;;;;;;4.90;0.80;;;;;;;30.84;32.52;99546.53;6045289;23;20161;-90
2022/09/07 08:13:07;;;;;;;;;;;;;;;;;;;;;
2022/09/07 08:15:43;;;;;;;0.90;0.43;;;;;;;30.69;31.12;99546.63;6070667;23;20259;-89
2022/09/07 08:18:13;;;;;;;1.35;0.73;;;;;;;30.49;30.92;99544.84;6041229;23;20168;-90
2022/09/07 08:20:39;;;;;;;1.63;0.52;;;;;;;30.26;30.15;99545.06;6070301;23;20168;-88
2022/09/07 08:23:10;;;;;;;1.52;0.60;;;;;;;30.23;30.12;99545.47;6044649;23;20578;-91
2022/09/07 08:25:36;;;;;;;3.10;0.70;;;;;;;30.35;30.13;99542.03;6044581;23;20149;-90
2022/09/07 08:28:05;;;;;;;2.38;0.80;;;;;;;30.25;30.76;99546.09;6044521;23;20228;-90
2022/09/07 08:30:37;;;;;;;4.95;1.83;;;;;;;30.50;30.31;99528.41;6070214;23;20153;-91
2022/09/07 08:33:10;;;;;;;2.05;0.60;;;;;;;30.56;29.84;99540.28;6069499;23;20577;-90
2022/09/07 08:35:35;;;;;;;1.40;0.68;;;;;;;30.63;29.89;99536.63;6045349;23;20491;-89
2022/09/07 08:38:01;;;;;;;2.35;0.68;;;;;;;30.50;28.93;99528.41;6069494;23;20228;-88
2022/09/07 08:40:26;;;;;;;2.13;0.80;;;;;;;30.16;28.70;99525.66;6070107;23;20160;-90
2022/09/07 08:43:14;;;;;;;2.58;1.17;;;;;;;29.93;29.96;99533.97;6044454;23;20188;-89
2022/09/07 08:45:48;;;;;;;2.40;0.70;;;;;;;29.28;30.53;99536.81;6070166;23;20146;-89
2022/09/07 08:48:19;;;;;;;1.42;0.68;;;;;;;29.47;31.81;99528.09;6069778;23;20538;-90
2022/09/07 08:50:56;;;;;;;2.22;1.00;;;;;;;29.88;31.07;99525.59;6044699;23;20156;-90
2022/09/07 08:53:29;;;;;;;2.42;0.90;;;;;;;30.18;29.99;99520.88;6069941;23;20172;-90
2022/09/07 08:56:04;;;;;;;2.22;0.73;;;;;;;30.37;29.88;99514.81;6044178;23;20632;-90
2022/09/07 08:58:29;;;;;;;2.38;1.17;;;;;;;29.73;29.43;99517.56;6044279;23;20169;-90
2022/09/07 09:00:55;;;;;;;2.65;0.90;;;;;;;30.00;30.26;99509.72;6044202;23;20161;-89
2022/09/07 09:03:30;;;;;;;2.28;0.85;;;;;;;30.04;30.10;99513.69;6044529;23;20656;-89
2022/09/07 09:06:33;;;;;;;3.40;0.98;;;;;;;29.82;29.89;99511.00;6070259;23;20152;-89
2022/09/07 09:09:44;;;;;;;2.38;1.15;;;;;;;30.37;30.40;99509.41;6069810;23;20219;-90
2022/09/07 09:12:39;;;;;;;1.90;1.10;;;;;;;30.85;28.56;99508.41;6055581;23;20165;-89
2022/09/07 09:15:25;;;;;;;4.05;0.95;;;;;;;30.88;29.71;99501.75;6043941;23;20146;-91
2022/09/07 09:18:18;;;;;;;3.72;1.17;;;;;;;30.57;27.89;99494.09;6069826;23;20232;-89
2022/09/07 09:20:55;;;;;;;3.42;1.08;;;;;;;30.51;28.11;99484.06;6069433;23;20236;-89
2022/09/07 09:23:26;;;;;;;1.67;0.90;;;;;;;30.82;28.32;99481.72;6069026;23;20236;-90
2022/09/07 09:25:55;;;;;;;4.80;1.08;;;;;;;31.29;28.14;99478.16;6069368;23;20145;-90
2022/09/07 09:28:21;;;;;;;1.85;0.80;;;;;;;31.49;28.52;99472.81;6069323;23;20172;-90
2022/09/07 09:30:47;;;;;;;2.30;1.10;;;;;;;31.64;27.50;99468.03;6069355;23;20156;-89
2022/09/07 09:33:23;;;;;;;2.28;1.00;;;;;;;31.59;27.91;99467.84;6069263;23;20479;-89
2022/09/07 09:35:53;;;;;;;1.77;0.75;;;;;;;31.80;28.73;99451.38;6044183;23;20241;-89
2022/09/07 09:38:38;;;;;;;3.13;1.17;;;;;;;31.67;28.42;99461.38;6069640;23;20212;-90
2022/09/07 09:41:08;;;;;;;5.30;1.05;;;;;;;31.52;28.28;99459.72;6069910;23;20161;-90
2022/09/07 09:43:42;;;;;;;7.70;1.13;;;;;;;31.55;28.01;99467.41;6043781;23;20166;-91
2022/09/07 09:46:51;;;;;;;2.22;1.08;;;;;;;31.71;27.55;99454.50;6069363;23;20133;-91
2022/09/07 09:49:22;;;;;;;4.43;1.48;;;;;;;31.92;27.50;99462.44;6036318;23;20180;-89
2022/09/07 09:51:57;;;;;;;3.85;0.85;;;;;;;32.20;27.39;99461.19;6069232;23;20160;-90
2022/09/07 09:54:39;;;;;;;4.70;1.17;;;;;;;32.13;26.78;99449.47;6068616;23;20239;-89
2022/09/07 09:57:15;;;;;;;2.70;1.15;;;;;;;32.21;27.01;99451.13;6043874;23;20180;-90
2022/09/07 09:59:41;;;;;;;1.60;0.90;;;;;;;32.44;25.96;99456.09;6069485;23;20148;-89
2022/09/07 10:02:30;;;;;;;4.10;1.25;;;;;;;32.18;26.84;99448.88;6068668;23;20224;-90
2022/09/07 10:04:56;;;;;;;4.05;1.00;;;;;;;32.10;26.40;99441.75;6069363;23;20143;-89
2022/09/07 10:07:26;;;;;;;0.90;0.50;;;;;;;32.31;26.57;99429.00;6068640;23;20180;-90
2022/09/07 10:09:54;;;;;;;4.03;0.98;;;;;;;32.25;26.89;99425.25;6069252;23;20515;-90
2022/09/07 10:12:33;;;;;;;2.60;0.80;;;;;;;32.68;25.98;99425.53;6068650;23;20226;-90
2022/09/07 10:15:01;;;;;;;1.60;0.77;;;;;;;32.81;25.93;99428.19;6043470;23;20157;-90
2022/09/07 10:17:40;;;;;;;1.90;0.80;;;;;;;32.92;25.05;99427.53;6068544;23;20160;-90
2022/09/07 10:20:12;;;;;;;1.83;0.80;;;;;;;32.92;25.64;99419.38;6069062;23;20161;-90
2022/09/07 10:22:41;;;;;;;2.67;1.25;;;;;;;32.86;25.97;99416.72;6068555;23;20220;-90
2022/09/07 10:25:32;;;;;;;1.70;0.90;;;;;;;32.94;25.92;99406.41;6043481;23;20242;-90
2022/09/07 10:28:08;;;;;;;3.28;0.60;;;;;;;32.36;25.37;99413.75;6069120;23;20200;-88
2022/09/07 10:31:09;;;;;;;1.10;0.60;;;;;;;32.46;26.54;99408.72;6068510;23;20664;-92
2022/09/07 10:33:55;;;;;;;3.33;1.02;;;;;;;32.95;24.90;99405.38;6069592;23;20142;-90
2022/09/07 10:36:26;;;;;;;1.48;0.73;;;;;;;33.17;25.93;99409.47;6068748;23;20169;-89
2022/09/07 10:39:07;;;;;;;2.15;0.90;;;;;;;33.22;25.16;99409.63;6068407;23;20153;-88
2022/09/07 10:42:04;;;;;;;3.75;0.80;;;;;;;32.75;24.92;99399.22;6068774;23;20216;-88
2022/09/07 10:44:30;;;;;;;2.45;0.95;;;;;;;32.88;25.27;99395.59;6069005;23;20138;-90
2022/09/07 10:47:12;;;;;;;2.90;0.95;;;;;;;33.12;25.47;99394.84;6068751;23;20159;-89
2022/09/07 10:49:45;;;;;;;1.83;0.90;;;;;;;33.42;25.21;99396.72;6043348;23;20153;-90
2022/09/07 10:52:30;;;;;;;1.58;0.65;;;;;;;33.51;24.63;99383.69;6043361;23;20158;-90
2022/09/07 10:55:14;;;;;;;1.77;0.65;;;;;;;33.33;24.67;99383.63;6044389;23;20153;-89
2022/09/07 10:57:58;;;;;;;1.50;0.73;;;;;;;33.47;24.97;99370.75;6044277;23;20188;-89
2022/09/07 11:00:40;;;;;;;2.30;1.08;;;;;;;33.29;25.12;99366.94;6068696;23;20137;-91
2022/09/07 11:03:42;;;;;;;3.33;1.13;;;;;;;33.70;24.96;99357.41;6043262;23;20153;-92
2022/09/07 11:06:19;;;;;;;2.60;0.90;;;;;;;33.93;24.42;99355.72;6043188;23;20156;-89
2022/09/07 11:09:02;;;;;;;6.45;0.70;;;;;;;34.15;24.74;99366.16;6068263;23;20137;-90
2022/09/07 11:11:37;;;;;;;1.60;0.70;;;;;;;33.99;24.38;99365.66;6068582;23;20201;-90
2022/09/07 11:14:10;;;;;;;3.35;0.85;;;;;;;33.90;24.43;99347.16;6069011;23;20167;-89
2022/09/07 11:16:44;;;;;;;1.40;0.50;;;;;;;34.17;24.36;99359.47;6068120;23;20212;-89
2022/09/07 11:19:21;;;;;;;3.67;0.70;;;;;;;34.35;24.05;99353.16;6068912;23;20145;-89
2022/09/07 11:22:23;;;;;;;3.05;0.95;;;;;;;34.42;24.60;99354.75;6068879;23;20142;-90
2022/09/07 11:25:09;;;;;;;1.50;0.70;;;;;;;34.52;24.02;99344.13;6043123;23;20144;-89
2022/09/07 11:27:43;;;;;;;1.67;0.80;;;;;;;33.69;24.19;99344.88;6068848;23;20138;-88
2022/09/07 11:30:19;;;;;;;3.80;1.30;;;;;;;33.04;24.96;99346.19;6068137;23;20142;-87
2022/09/07 11:33:00;;;;;;;1.20;0.60;;;;;;;33.54;24.62;99345.19;6069110;23;20137;-89
2022/09/07 11:35:29;;;;;;;1.70;0.98;;;;;;;33.60;24.12;99343.47;6043026;23;20610;-89
2022/09/07 11:38:02;;;;;;;2.00;0.88;;;;;;;33.35;24.09;99341.59;6043868;23;20589;-88
2022/09/07 11:40:41;;;;;;;1.63;0.63;;;;;;;33.04;25.36;99348.91;6044960;23;20228;-89
2022/09/07 11:43:21;;;;;;;1.92;0.70;;;;;;;33.52;25.02;99335.59;6070696;23;20137;-90
2022/09/07 11:46:14;;;;;;;1.50;0.60;;;;;;;34.00;23.87;99333.88;6070340;23;20137;-89
2022/09/07 11:48:54;;;;;;;2.10;0.65;;;;;;;33.95;24.49;99331.81;6070238;23;20149;-90
2022/09/07 11:51:38;;;;;;;2.47;0.82;;;;;;;34.15;24.58;99323.44;6044803;23;20282;-89
2022/09/07 11:54:32;;;;;;;2.38;0.90;;;;;;;34.62;24.61;99321.81;6044543;23;20645;-90
2022/09/07 11:57:11;;;;;;;1.40;0.80;;;;;;;35.01;23.81;99317.72;6045615;23;20188;-89
2022/09/07 11:59:57;;;;;;;2.80;0.73;;;;;;;35.30;23.50;99310.56;6070235;23;20141;-89
2022/09/07 12:02:35;;;;;;;1.50;0.60;;;;;;;35.46;23.32;99304.38;6070134;23;20224;-90